sensor_id;sensor_type;location;lat;lon;timestamp;temperature;humidity
56240;DHT22;42154;51.992;5.896;2022-12-18T00:01:37;-2.30;99.90
56240;DHT22;42154;51.992;5.896;2022-12-18T00:04:04;-2.30;99.90
56240;DHT22;42154;51.992;5.896;2022-12-18T00:06:31;-2.30;99.90
56240;DHT22;42154;51.992;5.896;2022-12-18T00:09:01;-2.30;99.90
56240;DHT22;42154;51.992;5.896;2022-12-18T00:11:29;-2.40;99.90
56240;DHT22;42154;51.992;5.896;2022-12-18T00:13:58;-2.40;99.90
56240;DHT22;42154;51.992;5.896;2022-12-18T00:16:25;-2.40;99.90
56240;DHT22;42154;51.992;5.896;2022-12-18T00:18:53;-2.50;99.90
56240;DHT22;42154;51.992;5.896;2022-12-18T00:21:20;-2.50;99.90
56240;DHT22;42154;51.992;5.896;2022-12-18T00:23:48;-2.50;99.90
56240;DHT22;42154;51.992;5.896;2022-12-18T00:26:17;-2.60;99.90
56240;DHT22;42154;51.992;5.896;2022-12-18T00:28:44;-2.60;99.90
56240;DHT22;42154;51.992;5.896;2022-12-18T00:31:13;-2.60;99.90
56240;DHT22;42154;51.992;5.896;2022-12-18T00:33:39;-2.60;99.90
56240;DHT22;42154;51.992;5.896;2022-12-18T00:36:14;-2.60;99.90
56240;DHT22;42154;51.992;5.896;2022-12-18T00:38:40;-2.60;99.90
56240;DHT22;42154;51.992;5.896;2022-12-18T00:41:07;-2.70;99.90
56240;DHT22;42154;51.992;5.896;2022-12-18T00:43:35;-2.70;99.90
56240;DHT22;42154;51.992;5.896;2022-12-18T00:46:01;-2.70;99.90
56240;DHT22;42154;51.992;5.896;2022-12-18T00:48:27;-2.80;99.90
56240;DHT22;42154;51.992;5.896;2022-12-18T00:50:53;-2.70;99.90
56240;DHT22;42154;51.992;5.896;2022-12-18T00:53:18;-2.80;99.90
56240;DHT22;42154;51.992;5.896;2022-12-18T00:55:45;-2.80;99.90
56240;DHT22;42154;51.992;5.896;2022-12-18T00:58:15;-2.80;99.90
56240;DHT22;42154;51.992;5.896;2022-12-18T01:00:42;-2.80;99.90
56240;DHT22;42154;51.992;5.896;2022-12-18T01:03:12;-2.80;99.90
56240;DHT22;42154;51.992;5.896;2022-12-18T01:05:40;-2.80;99.90
56240;DHT22;42154;51.992;5.896;2022-12-18T01:08:06;-2.90;99.90
56240;DHT22;42154;51.992;5.896;2022-12-18T01:10:32;-2.90;99.90
56240;DHT22;42154;51.992;5.896;2022-12-18T01:12:57;-2.90;99.90
56240;DHT22;42154;51.992;5.896;2022-12-18T01:15:23;-2.90;99.90
56240;DHT22;42154;51.992;5.896;2022-12-18T01:17:52;-2.90;99.90
56240;DHT22;42154;51.992;5.896;2022-12-18T01:20:18;-3.00;99.90
56240;DHT22;42154;51.992;5.896;2022-12-18T01:22:43;-3.00;99.90
56240;DHT22;42154;51.992;5.896;2022-12-18T01:25:09;-3.00;99.90
56240;DHT22;42154;51.992;5.896;2022-12-18T01:27:35;-3.00;99.90
56240;DHT22;42154;51.992;5.896;2022-12-18T01:30:03;-3.00;99.90
56240;DHT22;42154;51.992;5.896;2022-12-18T01:32:30;-3.10;99.90
56240;DHT22;42154;51.992;5.896;2022-12-18T01:34:56;-3.10;99.90
56240;DHT22;42154;51.992;5.896;2022-12-18T01:37:22;-3.10;99.90
56240;DHT22;42154;51.992;5.896;2022-12-18T01:39:48;-3.10;99.90
56240;DHT22;42154;51.992;5.896;2022-12-18T01:42:16;-3.10;99.90
56240;DHT22;42154;51.992;5.896;2022-12-18T01:49:53;-3.20;99.90
56240;DHT22;42154;51.992;5.896;2022-12-18T01:52:20;-3.20;99.90
56240;DHT22;42154;51.992;5.896;2022-12-18T01:54:48;-3.20;99.90
56240;DHT22;42154;51.992;5.896;2022-12-18T01:57:14;-3.20;99.90
56240;DHT22;42154;51.992;5.896;2022-12-18T01:59:42;-3.20;99.90
56240;DHT22;42154;51.992;5.896;2022-12-18T02:02:10;-3.20;99.90
56240;DHT22;42154;51.992;5.896;2022-12-18T02:04:36;-3.20;99.90
56240;DHT22;42154;51.992;5.896;2022-12-18T02:07:15;-3.30;99.90
56240;DHT22;42154;51.992;5.896;2022-12-18T02:09:47;-3.30;99.90
56240;DHT22;42154;51.992;5.896;2022-12-18T02:12:23;-3.30;99.90
56240;DHT22;42154;51.992;5.896;2022-12-18T02:15:00;-3.30;99.90
56240;DHT22;42154;51.992;5.896;2022-12-18T02:20:20;-3.30;99.90
56240;DHT22;42154;51.992;5.896;2022-12-18T02:26:18;-3.40;99.90
56240;DHT22;42154;51.992;5.896;2022-12-18T02:29:09;-3.40;99.90
56240;DHT22;42154;51.992;5.896;2022-12-18T02:31:45;-3.40;99.90
56240;DHT22;42154;51.992;5.896;2022-12-18T02:34:13;-3.50;99.90
56240;DHT22;42154;51.992;5.896;2022-12-18T02:36:43;-3.50;99.90
56240;DHT22;42154;51.992;5.896;2022-12-18T02:39:12;-3.50;99.90
56240;DHT22;42154;51.992;5.896;2022-12-18T02:41:46;-3.50;99.90
56240;DHT22;42154;51.992;5.896;2022-12-18T02:44:13;-3.60;99.90
56240;DHT22;42154;51.992;5.896;2022-12-18T02:46:43;-3.60;99.90
56240;DHT22;42154;51.992;5.896;2022-12-18T02:49:34;-3.70;99.90
56240;DHT22;42154;51.992;5.896;2022-12-18T03:01:03;-3.70;99.90
56240;DHT22;42154;51.992;5.896;2022-12-18T03:03:55;-3.70;99.90
56240;DHT22;42154;51.992;5.896;2022-12-18T03:08:51;-3.80;99.90
56240;DHT22;42154;51.992;5.896;2022-12-18T03:11:18;-3.80;99.90
56240;DHT22;42154;51.992;5.896;2022-12-18T03:14:07;-3.80;99.90
56240;DHT22;42154;51.992;5.896;2022-12-18T03:16:34;-3.80;99.90
56240;DHT22;42154;51.992;5.896;2022-12-18T03:19:07;-3.80;99.90
56240;DHT22;42154;51.992;5.896;2022-12-18T03:21:41;-3.80;99.90
56240;DHT22;42154;51.992;5.896;2022-12-18T03:24:09;-3.90;99.90
56240;DHT22;42154;51.992;5.896;2022-12-18T03:26:37;-3.80;99.90
56240;DHT22;42154;51.992;5.896;2022-12-18T03:29:13;-3.90;99.90
56240;DHT22;42154;51.992;5.896;2022-12-18T03:31:42;-3.90;99.90
56240;DHT22;42154;51.992;5.896;2022-12-18T03:34:16;-3.90;99.90
56240;DHT22;42154;51.992;5.896;2022-12-18T03:36:45;-3.90;99.90
56240;DHT22;42154;51.992;5.896;2022-12-18T03:39:12;-3.90;99.90
56240;DHT22;42154;51.992;5.896;2022-12-18T03:41:51;-3.90;99.90
56240;DHT22;42154;51.992;5.896;2022-12-18T03:47:44;-3.90;99.90
56240;DHT22;42154;51.992;5.896;2022-12-18T03:50:22;-3.90;99.90
56240;DHT22;42154;51.992;5.896;2022-12-18T03:52:58;-3.90;99.90
56240;DHT22;42154;51.992;5.896;2022-12-18T03:55:27;-4.00;99.90
56240;DHT22;42154;51.992;5.896;2022-12-18T03:58:00;-4.00;99.90
56240;DHT22;42154;51.992;5.896;2022-12-18T04:00:36;-3.90;99.90
56240;DHT22;42154;51.992;5.896;2022-12-18T04:03:07;-4.00;99.90
56240;DHT22;42154;51.992;5.896;2022-12-18T04:05:41;-3.90;99.90
56240;DHT22;42154;51.992;5.896;2022-12-18T04:08:08;-3.90;99.90
56240;DHT22;42154;51.992;5.896;2022-12-18T04:10:37;-3.90;99.90
56240;DHT22;42154;51.992;5.896;2022-12-18T04:13:03;-4.00;99.90
56240;DHT22;42154;51.992;5.896;2022-12-18T04:15:29;-3.90;99.90
56240;DHT22;42154;51.992;5.896;2022-12-18T04:17:57;-3.90;99.90
56240;DHT22;42154;51.992;5.896;2022-12-18T04:20:27;-3.90;99.90
56240;DHT22;42154;51.992;5.896;2022-12-18T04:22:53;-3.90;99.90
56240;DHT22;42154;51.992;5.896;2022-12-18T04:25:20;-3.90;99.90
56240;DHT22;42154;51.992;5.896;2022-12-18T04:27:58;-3.90;99.90
56240;DHT22;42154;51.992;5.896;2022-12-18T04:30:24;-3.90;99.90
56240;DHT22;42154;51.992;5.896;2022-12-18T04:32:49;-3.90;99.90
56240;DHT22;42154;51.992;5.896;2022-12-18T04:35:16;-3.90;99.90
56240;DHT22;42154;51.992;5.896;2022-12-18T04:37:43;-3.90;99.90
56240;DHT22;42154;51.992;5.896;2022-12-18T04:40:09;-3.90;99.90
56240;DHT22;42154;51.992;5.896;2022-12-18T04:42:40;-4.00;99.90
56240;DHT22;42154;51.992;5.896;2022-12-18T04:45:07;-3.90;99.90
56240;DHT22;42154;51.992;5.896;2022-12-18T04:47:33;-3.90;99.90
56240;DHT22;42154;51.992;5.896;2022-12-18T04:49:58;-4.00;99.90
56240;DHT22;42154;51.992;5.896;2022-12-18T04:52:24;-3.90;99.90
56240;DHT22;42154;51.992;5.896;2022-12-18T04:54:50;-3.90;99.90
56240;DHT22;42154;51.992;5.896;2022-12-18T04:57:16;-4.00;99.90
56240;DHT22;42154;51.992;5.896;2022-12-18T04:59:44;-4.00;99.90
56240;DHT22;42154;51.992;5.896;2022-12-18T05:02:10;-4.00;99.90
56240;DHT22;42154;51.992;5.896;2022-12-18T05:04:35;-4.00;99.90
56240;DHT22;42154;51.992;5.896;2022-12-18T05:07:01;-4.00;99.90
56240;DHT22;42154;51.992;5.896;2022-12-18T05:09:27;-4.00;99.90
56240;DHT22;42154;51.992;5.896;2022-12-18T05:11:53;-4.00;99.90
56240;DHT22;42154;51.992;5.896;2022-12-18T05:14:19;-4.00;99.90
56240;DHT22;42154;51.992;5.896;2022-12-18T05:16:44;-4.00;99.90
56240;DHT22;42154;51.992;5.896;2022-12-18T05:19:10;-4.00;99.90
56240;DHT22;42154;51.992;5.896;2022-12-18T05:21:36;-4.00;99.90
56240;DHT22;42154;51.992;5.896;2022-12-18T05:24:02;-4.00;99.90
56240;DHT22;42154;51.992;5.896;2022-12-18T05:26:27;-4.00;99.90
56240;DHT22;42154;51.992;5.896;2022-12-18T05:28:53;-4.00;99.90
56240;DHT22;42154;51.992;5.896;2022-12-18T05:31:19;-4.00;99.90
56240;DHT22;42154;51.992;5.896;2022-12-18T05:33:45;-4.00;99.90
56240;DHT22;42154;51.992;5.896;2022-12-18T05:36:11;-4.00;99.90
56240;DHT22;42154;51.992;5.896;2022-12-18T05:38:38;-4.10;99.90
56240;DHT22;42154;51.992;5.896;2022-12-18T05:41:04;-4.10;99.90
56240;DHT22;42154;51.992;5.896;2022-12-18T05:43:31;-4.10;99.90
56240;DHT22;42154;51.992;5.896;2022-12-18T05:46:03;-4.10;99.90
56240;DHT22;42154;51.992;5.896;2022-12-18T05:48:29;-4.00;99.90
56240;DHT22;42154;51.992;5.896;2022-12-18T05:50:55;-4.10;99.90
56240;DHT22;42154;51.992;5.896;2022-12-18T05:53:21;-4.10;99.90
56240;DHT22;42154;51.992;5.896;2022-12-18T05:55:47;-4.10;99.90
56240;DHT22;42154;51.992;5.896;2022-12-18T05:58:13;-4.10;99.90
56240;DHT22;42154;51.992;5.896;2022-12-18T06:00:42;-4.10;99.90
56240;DHT22;42154;51.992;5.896;2022-12-18T06:03:09;-4.10;99.90
56240;DHT22;42154;51.992;5.896;2022-12-18T06:05:40;-4.10;99.90
56240;DHT22;42154;51.992;5.896;2022-12-18T06:08:06;-4.10;99.90
56240;DHT22;42154;51.992;5.896;2022-12-18T06:10:32;-4.10;99.90
56240;DHT22;42154;51.992;5.896;2022-12-18T06:12:57;-4.10;99.90
56240;DHT22;42154;51.992;5.896;2022-12-18T06:15:23;-4.10;99.90
56240;DHT22;42154;51.992;5.896;2022-12-18T06:17:50;-4.10;99.90
56240;DHT22;42154;51.992;5.896;2022-12-18T06:20:16;-4.10;99.90
56240;DHT22;42154;51.992;5.896;2022-12-18T06:22:41;-4.10;99.90
56240;DHT22;42154;51.992;5.896;2022-12-18T06:25:07;-4.10;99.90
56240;DHT22;42154;51.992;5.896;2022-12-18T06:27:33;-4.10;99.90
56240;DHT22;42154;51.992;5.896;2022-12-18T06:29:59;-4.10;99.90
56240;DHT22;42154;51.992;5.896;2022-12-18T06:32:26;-4.00;99.90
56240;DHT22;42154;51.992;5.896;2022-12-18T06:34:52;-4.00;99.90
56240;DHT22;42154;51.992;5.896;2022-12-18T06:37:19;-4.00;99.90
56240;DHT22;42154;51.992;5.896;2022-12-18T06:39:45;-4.00;99.90
56240;DHT22;42154;51.992;5.896;2022-12-18T06:42:11;-4.00;99.90
56240;DHT22;42154;51.992;5.896;2022-12-18T06:44:36;-4.00;99.90
56240;DHT22;42154;51.992;5.896;2022-12-18T06:47:02;-4.00;99.90
56240;DHT22;42154;51.992;5.896;2022-12-18T06:49:28;-4.00;99.90
56240;DHT22;42154;51.992;5.896;2022-12-18T06:51:54;-4.00;99.90
56240;DHT22;42154;51.992;5.896;2022-12-18T06:54:19;-4.00;99.90
56240;DHT22;42154;51.992;5.896;2022-12-18T06:56:45;-4.00;99.90
56240;DHT22;42154;51.992;5.896;2022-12-18T06:59:12;-3.90;99.90
56240;DHT22;42154;51.992;5.896;2022-12-18T07:01:38;-4.00;99.90
56240;DHT22;42154;51.992;5.896;2022-12-18T07:04:04;-3.90;99.90
56240;DHT22;42154;51.992;5.896;2022-12-18T07:06:30;-3.90;99.90
56240;DHT22;42154;51.992;5.896;2022-12-18T07:08:56;-3.90;99.90
56240;DHT22;42154;51.992;5.896;2022-12-18T07:11:22;-3.90;99.90
56240;DHT22;42154;51.992;5.896;2022-12-18T07:13:48;-3.80;99.90
56240;DHT22;42154;51.992;5.896;2022-12-18T07:16:16;-3.80;99.90
56240;DHT22;42154;51.992;5.896;2022-12-18T07:18:42;-3.80;99.90
56240;DHT22;42154;51.992;5.896;2022-12-18T07:21:11;-3.70;99.90
56240;DHT22;42154;51.992;5.896;2022-12-18T07:23:38;-3.70;99.90
56240;DHT22;42154;51.992;5.896;2022-12-18T07:26:06;-3.70;99.90
56240;DHT22;42154;51.992;5.896;2022-12-18T07:28:32;-3.60;99.90
56240;DHT22;42154;51.992;5.896;2022-12-18T07:31:05;-3.60;99.90
56240;DHT22;42154;51.992;5.896;2022-12-18T07:33:32;-3.60;99.90
56240;DHT22;42154;51.992;5.896;2022-12-18T07:36:02;-3.60;99.90
56240;DHT22;42154;51.992;5.896;2022-12-18T07:38:29;-3.60;99.90
56240;DHT22;42154;51.992;5.896;2022-12-18T07:41:03;-3.60;99.90
56240;DHT22;42154;51.992;5.896;2022-12-18T07:43:30;-3.60;99.90
56240;DHT22;42154;51.992;5.896;2022-12-18T07:45:56;-3.60;99.90
56240;DHT22;42154;51.992;5.896;2022-12-18T07:48:21;-3.60;99.90
56240;DHT22;42154;51.992;5.896;2022-12-18T07:50:47;-3.60;99.90
56240;DHT22;42154;51.992;5.896;2022-12-18T07:53:13;-3.60;99.90
56240;DHT22;42154;51.992;5.896;2022-12-18T07:55:40;-3.50;99.90
56240;DHT22;42154;51.992;5.896;2022-12-18T07:58:06;-3.50;99.90
56240;DHT22;42154;51.992;5.896;2022-12-18T08:00:33;-3.50;99.90
56240;DHT22;42154;51.992;5.896;2022-12-18T08:02:58;-3.40;99.90
56240;DHT22;42154;51.992;5.896;2022-12-18T08:05:24;-3.40;99.90
56240;DHT22;42154;51.992;5.896;2022-12-18T08:07:50;-3.40;99.90
56240;DHT22;42154;51.992;5.896;2022-12-18T08:10:16;-3.40;99.90
56240;DHT22;42154;51.992;5.896;2022-12-18T08:12:42;-3.30;99.90
56240;DHT22;42154;51.992;5.896;2022-12-18T08:15:08;-3.30;99.90
56240;DHT22;42154;51.992;5.896;2022-12-18T08:17:34;-3.30;99.90
56240;DHT22;42154;51.992;5.896;2022-12-18T08:19:59;-3.20;99.90
56240;DHT22;42154;51.992;5.896;2022-12-18T08:22:25;-3.20;99.90
56240;DHT22;42154;51.992;5.896;2022-12-18T08:24:51;-3.10;99.90
56240;DHT22;42154;51.992;5.896;2022-12-18T08:27:17;-3.10;99.90
56240;DHT22;42154;51.992;5.896;2022-12-18T08:29:42;-3.00;99.90
56240;DHT22;42154;51.992;5.896;2022-12-18T08:32:08;-3.00;99.90
56240;DHT22;42154;51.992;5.896;2022-12-18T08:34:34;-2.90;99.90
56240;DHT22;42154;51.992;5.896;2022-12-18T08:37:00;-2.90;99.90
56240;DHT22;42154;51.992;5.896;2022-12-18T08:39:26;-2.90;99.90
56240;DHT22;42154;51.992;5.896;2022-12-18T08:41:52;-2.80;99.90
56240;DHT22;42154;51.992;5.896;2022-12-18T08:44:36;-2.80;99.90
56240;DHT22;42154;51.992;5.896;2022-12-18T08:47:05;-2.70;99.90
56240;DHT22;42154;51.992;5.896;2022-12-18T08:49:32;-2.70;99.90
56240;DHT22;42154;51.992;5.896;2022-12-18T08:51:57;-2.70;99.90
56240;DHT22;42154;51.992;5.896;2022-12-18T08:54:24;-2.60;99.90
56240;DHT22;42154;51.992;5.896;2022-12-18T08:56:50;-2.60;99.90
56240;DHT22;42154;51.992;5.896;2022-12-18T08:59:17;-2.60;99.90
56240;DHT22;42154;51.992;5.896;2022-12-18T09:01:43;-2.60;99.90
56240;DHT22;42154;51.992;5.896;2022-12-18T09:04:09;-2.60;99.90
56240;DHT22;42154;51.992;5.896;2022-12-18T09:06:35;-2.50;99.90
56240;DHT22;42154;51.992;5.896;2022-12-18T09:09:01;-2.50;99.90
56240;DHT22;42154;51.992;5.896;2022-12-18T09:11:28;-2.50;99.90
56240;DHT22;42154;51.992;5.896;2022-12-18T09:13:55;-2.50;99.90
56240;DHT22;42154;51.992;5.896;2022-12-18T09:16:23;-2.40;99.90
56240;DHT22;42154;51.992;5.896;2022-12-18T09:18:49;-2.30;99.90
56240;DHT22;42154;51.992;5.896;2022-12-18T09:21:18;-2.30;99.90
56240;DHT22;42154;51.992;5.896;2022-12-18T09:23:45;-2.20;99.90
56240;DHT22;42154;51.992;5.896;2022-12-18T09:26:14;-2.10;99.90
56240;DHT22;42154;51.992;5.896;2022-12-18T09:28:40;-2.10;99.90
56240;DHT22;42154;51.992;5.896;2022-12-18T09:31:07;-2.00;99.90
56240;DHT22;42154;51.992;5.896;2022-12-18T09:33:36;-1.90;99.90
56240;DHT22;42154;51.992;5.896;2022-12-18T09:36:06;-1.90;99.90
56240;DHT22;42154;51.992;5.896;2022-12-18T09:38:33;-1.80;99.90
56240;DHT22;42154;51.992;5.896;2022-12-18T09:43:54;-1.60;99.90
56240;DHT22;42154;51.992;5.896;2022-12-18T09:46:27;-1.60;99.90
56240;DHT22;42154;51.992;5.896;2022-12-18T09:48:58;-1.50;99.90
56240;DHT22;42154;51.992;5.896;2022-12-18T09:51:29;-1.50;99.90
56240;DHT22;42154;51.992;5.896;2022-12-18T09:54:07;-1.40;99.90
56240;DHT22;42154;51.992;5.896;2022-12-18T09:56:40;-1.30;99.90
56240;DHT22;42154;51.992;5.896;2022-12-18T09:59:18;-1.30;99.90
56240;DHT22;42154;51.992;5.896;2022-12-18T10:01:46;-1.20;99.90
56240;DHT22;42154;51.992;5.896;2022-12-18T10:04:12;-1.20;99.90
56240;DHT22;42154;51.992;5.896;2022-12-18T10:07:01;-1.20;99.90
56240;DHT22;42154;51.992;5.896;2022-12-18T10:09:46;-1.10;99.90
56240;DHT22;42154;51.992;5.896;2022-12-18T10:12:32;-1.10;99.90
56240;DHT22;42154;51.992;5.896;2022-12-18T10:21:03;-1.00;99.90
56240;DHT22;42154;51.992;5.896;2022-12-18T10:26:08;-0.90;99.90
56240;DHT22;42154;51.992;5.896;2022-12-18T10:28:36;-0.80;99.90
56240;DHT22;42154;51.992;5.896;2022-12-18T10:31:20;-0.70;99.90
56240;DHT22;42154;51.992;5.896;2022-12-18T10:33:46;-0.70;99.90
56240;DHT22;42154;51.992;5.896;2022-12-18T10:36:12;-0.60;99.90
56240;DHT22;42154;51.992;5.896;2022-12-18T10:38:39;-0.60;99.90
56240;DHT22;42154;51.992;5.896;2022-12-18T10:41:12;-0.50;99.90
56240;DHT22;42154;51.992;5.896;2022-12-18T10:46:45;-0.40;99.90
56240;DHT22;42154;51.992;5.896;2022-12-18T10:49:21;-0.40;99.90
56240;DHT22;42154;51.992;5.896;2022-12-18T10:51:48;-0.30;99.90
56240;DHT22;42154;51.992;5.896;2022-12-18T10:54:17;-0.30;99.90
56240;DHT22;42154;51.992;5.896;2022-12-18T10:56:44;-0.20;99.90
56240;DHT22;42154;51.992;5.896;2022-12-18T10:59:12;-0.20;99.90
56240;DHT22;42154;51.992;5.896;2022-12-18T11:04:26;-0.10;99.90
56240;DHT22;42154;51.992;5.896;2022-12-18T11:09:26;0.00;99.90
56240;DHT22;42154;51.992;5.896;2022-12-18T11:11:54;0.00;99.90
56240;DHT22;42154;51.992;5.896;2022-12-18T11:14:29;0.10;99.90
56240;DHT22;42154;51.992;5.896;2022-12-18T11:16:55;0.10;99.90
56240;DHT22;42154;51.992;5.896;2022-12-18T11:19:39;0.10;99.90
56240;DHT22;42154;51.992;5.896;2022-12-18T11:22:26;0.20;99.90
56240;DHT22;42154;51.992;5.896;2022-12-18T11:24:57;0.20;99.90
56240;DHT22;42154;51.992;5.896;2022-12-18T11:27:24;0.20;99.90
56240;DHT22;42154;51.992;5.896;2022-12-18T11:29:50;0.30;99.90
56240;DHT22;42154;51.992;5.896;2022-12-18T11:35:43;0.40;99.90
56240;DHT22;42154;51.992;5.896;2022-12-18T11:38:24;0.40;99.90
56240;DHT22;42154;51.992;5.896;2022-12-18T11:41:29;0.50;99.90
56240;DHT22;42154;51.992;5.896;2022-12-18T11:44:30;0.50;99.90
56240;DHT22;42154;51.992;5.896;2022-12-18T11:49:48;0.60;99.90
56240;DHT22;42154;51.992;5.896;2022-12-18T11:52:19;0.60;99.90
56240;DHT22;42154;51.992;5.896;2022-12-18T11:54:46;0.60;99.90
56240;DHT22;42154;51.992;5.896;2022-12-18T12:00:07;0.70;99.90
56240;DHT22;42154;51.992;5.896;2022-12-18T12:21:33;1.00;99.90
56240;DHT22;42154;51.992;5.896;2022-12-18T12:27:36;1.00;99.90
56240;DHT22;42154;51.992;5.896;2022-12-18T12:29:59;1.10;99.90
56240;DHT22;42154;51.992;5.896;2022-12-18T12:35:09;1.10;99.90
56240;DHT22;42154;51.992;5.896;2022-12-18T12:40:51;1.20;99.90
56240;DHT22;42154;51.992;5.896;2022-12-18T12:43:28;1.20;99.90
56240;DHT22;42154;51.992;5.896;2022-12-18T12:53:42;1.20;99.90
56240;DHT22;42154;51.992;5.896;2022-12-18T12:56:11;1.20;99.90
56240;DHT22;42154;51.992;5.896;2022-12-18T12:59:01;1.20;99.90
56240;DHT22;42154;51.992;5.896;2022-12-18T13:09:24;1.30;99.90
56240;DHT22;42154;51.992;5.896;2022-12-18T13:11:49;1.30;99.90
56240;DHT22;42154;51.992;5.896;2022-12-18T13:14:38;1.30;99.90
56240;DHT22;42154;51.992;5.896;2022-12-18T13:19:43;1.30;99.90
56240;DHT22;42154;51.992;5.896;2022-12-18T13:22:22;1.30;99.90
56240;DHT22;42154;51.992;5.896;2022-12-18T13:24:49;1.30;99.90
56240;DHT22;42154;51.992;5.896;2022-12-18T13:38:45;1.30;99.90
56240;DHT22;42154;51.992;5.896;2022-12-18T13:41:26;1.30;99.90
56240;DHT22;42154;51.992;5.896;2022-12-18T13:43:54;1.40;99.90
56240;DHT22;42154;51.992;5.896;2022-12-18T13:46:44;1.40;99.90
56240;DHT22;42154;51.992;5.896;2022-12-18T13:51:50;1.40;99.90
56240;DHT22;42154;51.992;5.896;2022-12-18T13:56:46;1.40;99.90
56240;DHT22;42154;51.992;5.896;2022-12-18T13:59:20;1.40;99.90
56240;DHT22;42154;51.992;5.896;2022-12-18T14:01:50;1.40;99.90
56240;DHT22;42154;51.992;5.896;2022-12-18T14:04:20;1.40;99.90
56240;DHT22;42154;51.992;5.896;2022-12-18T14:06:47;1.40;99.90
56240;DHT22;42154;51.992;5.896;2022-12-18T14:09:16;1.40;99.90
56240;DHT22;42154;51.992;5.896;2022-12-18T14:11:48;1.40;99.90
56240;DHT22;42154;51.992;5.896;2022-12-18T14:14:18;1.50;99.90
56240;DHT22;42154;51.992;5.896;2022-12-18T14:16:46;1.40;99.90
56240;DHT22;42154;51.992;5.896;2022-12-18T14:19:16;1.50;99.90
56240;DHT22;42154;51.992;5.896;2022-12-18T14:21:47;1.50;99.90
56240;DHT22;42154;51.992;5.896;2022-12-18T14:24:19;1.50;99.90
56240;DHT22;42154;51.992;5.896;2022-12-18T14:26:47;1.50;99.90
56240;DHT22;42154;51.992;5.896;2022-12-18T14:29:28;1.50;99.90
56240;DHT22;42154;51.992;5.896;2022-12-18T14:32:18;1.50;99.90
56240;DHT22;42154;51.992;5.896;2022-12-18T14:34:51;1.50;99.90
56240;DHT22;42154;51.992;5.896;2022-12-18T14:37:26;1.50;99.90
56240;DHT22;42154;51.992;5.896;2022-12-18T14:40:01;1.50;99.90
56240;DHT22;42154;51.992;5.896;2022-12-18T14:42:28;1.50;99.90
56240;DHT22;42154;51.992;5.896;2022-12-18T14:48:00;1.50;99.90
56240;DHT22;42154;51.992;5.896;2022-12-18T14:50:30;1.50;99.90
56240;DHT22;42154;51.992;5.896;2022-12-18T14:52:56;1.50;99.90
56240;DHT22;42154;51.992;5.896;2022-12-18T14:55:22;1.50;99.90
56240;DHT22;42154;51.992;5.896;2022-12-18T14:57:54;1.50;99.90
56240;DHT22;42154;51.992;5.896;2022-12-18T15:00:23;1.50;99.90
56240;DHT22;42154;51.992;5.896;2022-12-18T15:02:55;1.50;99.90
56240;DHT22;42154;51.992;5.896;2022-12-18T15:05:29;1.50;99.90
56240;DHT22;42154;51.992;5.896;2022-12-18T15:07:57;1.50;99.90
56240;DHT22;42154;51.992;5.896;2022-12-18T15:10:29;1.50;99.90
56240;DHT22;42154;51.992;5.896;2022-12-18T15:25:47;1.40;99.90
56240;DHT22;42154;51.992;5.896;2022-12-18T15:28:31;1.50;99.90
56240;DHT22;42154;51.992;5.896;2022-12-18T15:33:34;1.40;99.90
56240;DHT22;42154;51.992;5.896;2022-12-18T15:36:02;1.40;99.90
56240;DHT22;42154;51.992;5.896;2022-12-18T15:38:29;1.40;99.90
56240;DHT22;42154;51.992;5.896;2022-12-18T15:40:54;1.40;99.90
56240;DHT22;42154;51.992;5.896;2022-12-18T15:43:22;1.40;99.90
56240;DHT22;42154;51.992;5.896;2022-12-18T15:46:06;1.40;99.90
56240;DHT22;42154;51.992;5.896;2022-12-18T15:48:34;1.40;99.90
56240;DHT22;42154;51.992;5.896;2022-12-18T15:51:01;1.40;99.90
56240;DHT22;42154;51.992;5.896;2022-12-18T15:53:33;1.40;99.90
56240;DHT22;42154;51.992;5.896;2022-12-18T15:55:59;1.50;99.90
56240;DHT22;42154;51.992;5.896;2022-12-18T15:58:43;1.40;99.90
56240;DHT22;42154;51.992;5.896;2022-12-18T16:01:09;1.40;99.90
56240;DHT22;42154;51.992;5.896;2022-12-18T16:03:36;1.40;99.90
56240;DHT22;42154;51.992;5.896;2022-12-18T16:06:02;1.40;99.90
56240;DHT22;42154;51.992;5.896;2022-12-18T16:08:31;1.40;99.90
56240;DHT22;42154;51.992;5.896;2022-12-18T16:10:58;1.40;99.90
56240;DHT22;42154;51.992;5.896;2022-12-18T16:13:23;1.40;99.90
56240;DHT22;42154;51.992;5.896;2022-12-18T16:15:49;1.40;99.90
56240;DHT22;42154;51.992;5.896;2022-12-18T16:18:15;1.40;99.90
56240;DHT22;42154;51.992;5.896;2022-12-18T16:20:41;1.40;99.90
56240;DHT22;42154;51.992;5.896;2022-12-18T16:23:07;1.40;99.90
56240;DHT22;42154;51.992;5.896;2022-12-18T16:25:33;1.40;99.90
56240;DHT22;42154;51.992;5.896;2022-12-18T16:27:59;1.40;99.90
56240;DHT22;42154;51.992;5.896;2022-12-18T16:30:27;1.30;99.90
56240;DHT22;42154;51.992;5.896;2022-12-18T16:32:54;1.30;99.90
56240;DHT22;42154;51.992;5.896;2022-12-18T16:35:21;1.30;99.90
56240;DHT22;42154;51.992;5.896;2022-12-18T16:37:46;1.30;99.90
56240;DHT22;42154;51.992;5.896;2022-12-18T16:40:14;1.30;99.90
56240;DHT22;42154;51.992;5.896;2022-12-18T16:42:42;1.30;99.90
56240;DHT22;42154;51.992;5.896;2022-12-18T16:45:11;1.30;99.90
56240;DHT22;42154;51.992;5.896;2022-12-18T16:47:37;1.30;99.90
56240;DHT22;42154;51.992;5.896;2022-12-18T16:50:04;1.30;99.90
56240;DHT22;42154;51.992;5.896;2022-12-18T16:52:30;1.30;99.90
56240;DHT22;42154;51.992;5.896;2022-12-18T16:54:56;1.30;99.90
56240;DHT22;42154;51.992;5.896;2022-12-18T16:57:22;1.30;99.90
56240;DHT22;42154;51.992;5.896;2022-12-18T16:59:48;1.30;99.90
56240;DHT22;42154;51.992;5.896;2022-12-18T17:02:22;1.30;99.90
56240;DHT22;42154;51.992;5.896;2022-12-18T17:04:48;1.30;99.90
56240;DHT22;42154;51.992;5.896;2022-12-18T17:07:15;1.30;99.90
56240;DHT22;42154;51.992;5.896;2022-12-18T17:09:41;1.20;99.90
56240;DHT22;42154;51.992;5.896;2022-12-18T17:12:07;1.20;99.90
56240;DHT22;42154;51.992;5.896;2022-12-18T17:14:34;1.20;99.90
56240;DHT22;42154;51.992;5.896;2022-12-18T17:17:00;1.20;99.90
56240;DHT22;42154;51.992;5.896;2022-12-18T17:19:26;1.20;99.90
56240;DHT22;42154;51.992;5.896;2022-12-18T17:21:53;1.20;99.90
56240;DHT22;42154;51.992;5.896;2022-12-18T17:24:19;1.20;99.90
56240;DHT22;42154;51.992;5.896;2022-12-18T17:26:46;1.20;99.90
56240;DHT22;42154;51.992;5.896;2022-12-18T17:29:18;1.20;99.90
56240;DHT22;42154;51.992;5.896;2022-12-18T17:31:45;1.20;99.90
56240;DHT22;42154;51.992;5.896;2022-12-18T17:34:12;1.20;99.90
56240;DHT22;42154;51.992;5.896;2022-12-18T17:36:38;1.20;99.90
56240;DHT22;42154;51.992;5.896;2022-12-18T17:39:04;1.20;99.90
56240;DHT22;42154;51.992;5.896;2022-12-18T17:41:31;1.20;99.90
56240;DHT22;42154;51.992;5.896;2022-12-18T17:43:59;1.20;99.90
56240;DHT22;42154;51.992;5.896;2022-12-18T17:46:27;1.20;99.90
56240;DHT22;42154;51.992;5.896;2022-12-18T17:48:57;1.20;99.90
56240;DHT22;42154;51.992;5.896;2022-12-18T17:51:24;1.20;99.90
56240;DHT22;42154;51.992;5.896;2022-12-18T17:53:50;1.20;99.90
56240;DHT22;42154;51.992;5.896;2022-12-18T17:56:18;1.20;99.90
56240;DHT22;42154;51.992;5.896;2022-12-18T17:58:44;1.20;99.90
56240;DHT22;42154;51.992;5.896;2022-12-18T18:01:15;1.20;99.90
56240;DHT22;42154;51.992;5.896;2022-12-18T18:03:41;1.30;99.90